createdAt,value
2023-04-01T00:04:51.971Z,97908.74
2023-04-01T00:07:55.883Z,97913.71
2023-04-01T00:10:59.275Z,97913.02
2023-04-01T00:14:03.656Z,97911.09
2023-04-01T00:17:07.316Z,97910.37
2023-04-01T00:20:12.529Z,97910.81
2023-04-01T00:23:17.003Z,97910.74
2023-04-01T00:26:22.653Z,97908.43
2023-04-01T00:29:30.328Z,97904.34
2023-04-01T00:32:33.668Z,97901.58
2023-04-01T00:35:37.030Z,97897.55
2023-04-01T00:38:40.850Z,97895.39
2023-04-01T00:41:44.464Z,97897.63
2023-04-01T00:44:56.150Z,97895.80
2023-04-01T00:48:07.535Z,97896.98
2023-04-01T00:51:17.177Z,97899.34
2023-04-01T00:54:22.930Z,97893.93
2023-04-01T00:57:33.287Z,97892.34
2023-04-01T01:00:38.064Z,97892.41
2023-04-01T01:03:42.153Z,97891.58
2023-04-01T01:06:56.505Z,97889.41
2023-04-01T01:10:20.902Z,97892.20
2023-04-01T01:13:36.477Z,97897.10
2023-04-01T01:16:46.350Z,97898.09
2023-04-01T01:20:26.971Z,97892.75
2023-04-01T01:24:06.760Z,97895.42
2023-04-01T01:27:14.920Z,97896.10
2023-04-01T01:30:37.627Z,97896.00
2023-04-01T01:34:04.056Z,97899.20
2023-04-01T01:37:14.614Z,97905.16
2023-04-01T01:40:19.096Z,97909.03
2023-04-01T01:43:26.913Z,97913.21
2023-04-01T01:46:32.281Z,97916.52
2023-04-01T01:49:38.140Z,97921.97
2023-04-01T01:52:41.449Z,97925.95
2023-04-01T01:55:47.895Z,97923.46
2023-04-01T01:58:56.028Z,97930.31
2023-04-01T02:04:54.224Z,97925.05
2023-04-01T02:08:13.658Z,97926.08
2023-04-01T02:11:22.733Z,97926.36
2023-04-01T02:14:44.862Z,97922.05
2023-04-01T02:17:49.854Z,97918.77
2023-04-01T02:20:54.833Z,97918.46
2023-04-01T02:24:02.228Z,97924.61
2023-04-01T02:27:11.564Z,97920.40
2023-04-01T02:30:18.552Z,97922.23
2023-04-01T02:33:22.151Z,97920.36
2023-04-01T02:36:27.436Z,97918.72
2023-04-01T02:39:32.124Z,97920.20
2023-04-01T02:42:35.828Z,97916.89
2023-04-01T02:45:39.333Z,97915.54
2023-04-01T02:48:43.712Z,97918.73
2023-04-01T02:51:46.908Z,97918.05
2023-04-01T02:54:50.289Z,97922.29
2023-04-01T02:57:56.112Z,97915.91
2023-04-01T03:00:59.634Z,97913.98
2023-04-01T03:04:04.038Z,97914.88
2023-04-01T03:07:08.153Z,97915.20
2023-04-01T03:10:11.961Z,97918.73
2023-04-01T03:13:16.023Z,97914.64
2023-04-01T03:16:20.563Z,97915.27
2023-04-01T03:19:24.127Z,97907.52
2023-04-01T03:22:27.393Z,97909.39
2023-04-01T03:25:32.239Z,97914.73
2023-04-01T03:28:36.653Z,97916.40
2023-04-01T03:31:39.961Z,97917.04
2023-04-01T03:34:43.352Z,97920.83
2023-04-01T03:37:46.752Z,97921.39
2023-04-01T03:40:51.581Z,97923.73
2023-04-01T03:43:55.290Z,97928.55
2023-04-01T03:46:58.481Z,97934.27
2023-04-01T03:50:02.903Z,97931.98
2023-04-01T03:53:07.224Z,97932.77
2023-04-01T03:56:11.777Z,97928.39
2023-04-01T03:59:16.395Z,97929.10
2023-04-01T04:04:53.278Z,97935.61
2023-04-01T04:07:56.983Z,97934.69
2023-04-01T04:11:00.998Z,97939.73
2023-04-01T04:14:04.417Z,97950.41
2023-04-01T04:17:09.438Z,97960.61
2023-04-01T04:20:13.245Z,97963.36
2023-04-01T04:23:17.369Z,97961.86
2023-04-01T04:26:20.982Z,97956.59
2023-04-01T04:29:31.234Z,97954.52
2023-04-01T04:32:35.255Z,97952.70
2023-04-01T04:35:39.361Z,97949.21
2023-04-01T04:38:47.774Z,97948.66
2023-04-01T04:41:51.786Z,97947.81
2023-04-01T04:44:56.132Z,97949.84
2023-04-01T04:48:00.079Z,97944.55
2023-04-01T04:51:04.582Z,97945.93
2023-04-01T04:54:08.968Z,97953.07
2023-04-01T04:57:33.291Z,97949.30
2023-04-01T05:00:37.270Z,97949.77
2023-04-01T05:03:49.285Z,97947.91
2023-04-01T05:06:53.088Z,97939.89
2023-04-01T05:09:56.684Z,97941.33
2023-04-01T05:13:01.130Z,97935.67
2023-04-01T05:16:10.436Z,97931.61
2023-04-01T05:19:17.543Z,97935.16
2023-04-01T05:22:21.226Z,97936.41
2023-04-01T05:25:27.241Z,97936.77
2023-04-01T05:28:31.312Z,97943.10
2023-04-01T05:31:34.531Z,97948.14
2023-04-01T05:34:38.573Z,97948.75
2023-04-01T05:37:41.732Z,97951.55
2023-04-01T05:40:45.035Z,97954.20
2023-04-01T05:43:48.265Z,97956.91
2023-04-01T05:47:14.882Z,97963.13
2023-04-01T05:50:18.719Z,97965.87
2023-04-01T05:53:23.396Z,97964.48
2023-04-01T05:56:26.707Z,97968.34
2023-04-01T05:59:32.386Z,97962.98
2023-04-01T06:05:19.143Z,97973.27
2023-04-01T06:08:21.368Z,97975.26
2023-04-01T06:12:01.314Z,97978.15
2023-04-01T06:15:25.070Z,97976.30
2023-04-01T06:18:30.827Z,97973.30
2023-04-01T06:21:42.339Z,97968.13
2023-04-01T06:25:26.434Z,97957.54
2023-04-01T06:28:47.219Z,97945.75
2023-04-01T06:32:06.394Z,97942.36
2023-04-01T06:35:11.499Z,97941.50
2023-04-01T06:38:38.781Z,97940.91
2023-04-01T06:42:19.220Z,97939.36
2023-04-01T06:45:49.343Z,97934.20
2023-04-01T06:49:45.044Z,97940.81
2023-04-01T06:53:30.065Z,97946.14
2023-04-01T06:57:01.172Z,97949.77
2023-04-01T07:00:15.182Z,97951.42
2023-04-01T07:04:10.567Z,97951.55
2023-04-01T07:07:25.434Z,97946.08
2023-04-01T07:10:54.283Z,97944.54
2023-04-01T07:14:37.988Z,97948.90
2023-04-01T07:17:44.403Z,97948.08
2023-04-01T07:20:47.739Z,97951.73
2023-04-01T07:23:55.333Z,97952.93
2023-04-01T07:27:10.820Z,97949.44
2023-04-01T07:30:24.247Z,97948.93
2023-04-01T07:33:51.246Z,97949.31
2023-04-01T07:37:11.691Z,97950.27
2023-04-01T07:40:25.562Z,97954.86
2023-04-01T07:44:03.163Z,97955.52
2023-04-01T07:47:24.369Z,97953.79
2023-04-01T07:50:53.066Z,97958.81
2023-04-01T07:54:26.976Z,97963.08
2023-04-01T07:58:11.749Z,97968.23
2023-04-01T08:01:21.388Z,97972.13
2023-04-01T08:04:52.995Z,97969.44
2023-04-01T08:08:10.593Z,97975.23
2023-04-01T08:11:37.219Z,97980.08
2023-04-01T08:15:16.566Z,97988.39
2023-04-01T08:18:57.776Z,97989.70
2023-04-01T08:22:10.480Z,97991.23
2023-04-01T08:25:25.641Z,97989.00
2023-04-01T08:28:55.964Z,97990.30
2023-04-01T08:32:17.175Z,97989.69
2023-04-01T08:35:46.242Z,97991.55
2023-04-01T08:39:11.288Z,97993.48
2023-04-01T08:42:44.595Z,97989.94
2023-04-01T08:46:08.655Z,97992.63
2023-04-01T08:49:33.990Z,97995.09
2023-04-01T08:52:58.178Z,97993.88
2023-04-01T08:56:25.497Z,97992.94
2023-04-01T08:59:58.834Z,97989.55
2023-04-01T09:03:25.558Z,97984.16
2023-04-01T09:06:32.587Z,97978.39
2023-04-01T09:09:47.227Z,97978.81
2023-04-01T09:13:09.792Z,97974.00
2023-04-01T09:17:01.024Z,97973.17
2023-04-01T09:20:28.205Z,97977.02
2023-04-01T09:23:38.420Z,97976.14
2023-04-01T09:26:52.880Z,97967.73
2023-04-01T09:30:35.419Z,97968.45
2023-04-01T09:34:24.371Z,97971.98
2023-04-01T09:38:01.087Z,97973.98
2023-04-01T09:41:28.404Z,97980.14
2023-04-01T09:44:57.812Z,97977.98
2023-04-01T09:48:13.364Z,97979.54
2023-04-01T09:51:25.145Z,97974.23
2023-04-01T09:54:55.760Z,97975.09
2023-04-01T09:58:27.070Z,97972.52
2023-04-01T10:05:40.084Z,97970.58
2023-04-01T10:08:52.356Z,97962.77
2023-04-01T10:12:36.938Z,97956.05
2023-04-01T10:16:11.501Z,97954.84
2023-04-01T10:19:55.718Z,97949.68
2023-04-01T10:23:09.332Z,97948.48
2023-04-01T10:26:27.680Z,97947.89
2023-04-01T10:30:13.678Z,97941.92
2023-04-01T10:33:35.715Z,97937.36
2023-04-01T10:36:54.413Z,97936.52
2023-04-01T10:40:04.534Z,97930.05
2023-04-01T10:44:19.414Z,97928.86
2023-04-01T10:47:46.192Z,97935.96
2023-04-01T10:51:12.083Z,97934.03
2023-04-01T10:54:32.982Z,97931.58
2023-04-01T10:58:32.314Z,97929.77
2023-04-01T11:02:57.758Z,97928.09
2023-04-01T11:06:36.650Z,97928.27
2023-04-01T11:10:12.320Z,97930.52
2023-04-01T11:14:10.199Z,97933.82
2023-04-01T11:17:35.903Z,97935.37
2023-04-01T11:21:08.588Z,97924.81
2023-04-01T11:24:32.587Z,97922.24
2023-04-01T11:28:06.692Z,97915.38
2023-04-01T11:31:48.592Z,97912.84
2023-04-01T11:35:18.720Z,97907.73
2023-04-01T11:38:41.889Z,97902.16
2023-04-01T11:42:18.457Z,97903.73
2023-04-01T11:46:05.315Z,97892.42
2023-04-01T11:49:45.640Z,97886.56
2023-04-01T11:53:24.065Z,97876.09
2023-04-01T11:56:41.830Z,97870.38
2023-04-01T11:59:56.054Z,97876.31
2023-04-01T12:03:29.598Z,97878.89
2023-04-01T12:06:53.240Z,97879.12
2023-04-01T12:10:04.310Z,97877.02
2023-04-01T12:13:32.085Z,97875.02
2023-04-01T12:17:20.435Z,97869.91
2023-04-01T12:21:10.237Z,97877.64
2023-04-01T12:24:37.075Z,97875.62
2023-04-01T12:27:46.307Z,97878.40
2023-04-01T12:30:54.541Z,97873.48
2023-04-01T12:34:15.870Z,97872.52
2023-04-01T12:37:45.148Z,97875.52
2023-04-01T12:41:22.131Z,97869.71
2023-04-01T12:44:52.256Z,97869.88
2023-04-01T12:48:03.476Z,97864.59
2023-04-01T12:51:38.791Z,97859.11
2023-04-01T12:54:43.824Z,97863.52
2023-04-01T12:58:11.297Z,97867.29
2023-04-01T13:01:29.065Z,97863.03
2023-04-01T13:04:47.247Z,97860.27
2023-04-01T13:08:01.121Z,97862.52
2023-04-01T13:11:21.312Z,97853.05
2023-04-01T13:14:49.490Z,97855.19
2023-04-01T13:18:27.282Z,97857.02
2023-04-01T13:21:54.047Z,97856.17
2023-04-01T13:25:02.768Z,97853.29
2023-04-01T13:28:30.126Z,97847.30
2023-04-01T13:31:34.976Z,97847.29
2023-04-01T13:34:48.617Z,97848.53
2023-04-01T13:38:23.814Z,97850.63
2023-04-01T13:41:40.988Z,97851.70
2023-04-01T13:44:55.747Z,97851.20
2023-04-01T13:48:23.402Z,97851.20
2023-04-01T13:51:44.112Z,97845.73
2023-04-01T13:55:20.107Z,97847.20
2023-04-01T13:58:40.257Z,97849.84
2023-04-01T14:05:41.902Z,97853.75
2023-04-01T14:09:22.899Z,97853.12
2023-04-01T14:12:47.433Z,97853.66
2023-04-01T14:16:48.406Z,97855.48
2023-04-01T14:20:13.938Z,97851.63
2023-04-01T14:23:32.182Z,97852.33
2023-04-01T14:26:46.282Z,97854.88
2023-04-01T14:30:36.176Z,97857.52
2023-04-01T14:33:56.980Z,97857.92
2023-04-01T14:37:20.259Z,97859.14
2023-04-01T14:40:39.208Z,97854.50
2023-04-01T14:43:53.085Z,97860.20
2023-04-01T14:47:05.132Z,97859.38
2023-04-01T14:50:14.410Z,97862.81
2023-04-01T14:53:39.414Z,97867.20
2023-04-01T14:56:49.627Z,97872.05
2023-04-01T15:00:04.975Z,97879.49
2023-04-01T15:03:31.391Z,97879.98
2023-04-01T15:06:36.731Z,97880.28
2023-04-01T15:09:44.762Z,97885.05
2023-04-01T15:13:15.780Z,97881.05
2023-04-01T15:16:42.734Z,97881.67
2023-04-01T15:20:02.816Z,97883.47
2023-04-01T15:23:40.428Z,97886.92
2023-04-01T15:26:45.690Z,97891.55
2023-04-01T15:30:13.756Z,97897.35
2023-04-01T15:33:32.530Z,97897.84
2023-04-01T15:36:54.150Z,97907.84
2023-04-01T15:40:12.281Z,97911.08
2023-04-01T15:43:43.324Z,97913.60
2023-04-01T15:46:48.236Z,97909.56
2023-04-01T15:50:08.049Z,97917.21
2023-04-01T15:53:23.324Z,97929.59
2023-04-01T15:56:48.643Z,97932.09
2023-04-01T16:00:28.197Z,97933.67
2023-04-01T16:04:16.527Z,97941.90
2023-04-01T16:07:41.166Z,97946.30
2023-04-01T16:10:52.191Z,97944.73
2023-04-01T16:14:07.175Z,97951.02
2023-04-01T16:17:50.774Z,97951.02
2023-04-01T16:21:00.977Z,97956.06
2023-04-01T16:24:30.893Z,97958.81
2023-04-01T16:27:46.790Z,97959.58
2023-04-01T16:31:15.176Z,97960.71
2023-04-01T16:34:36.596Z,97966.54
2023-04-01T16:37:48.697Z,97972.02
2023-04-01T16:40:58.800Z,97973.07
2023-04-01T16:44:30.852Z,97970.77
2023-04-01T16:47:47.436Z,97968.70
2023-04-01T16:50:55.343Z,97972.70
2023-04-01T16:54:13.279Z,97970.70
2023-04-01T16:57:32.079Z,97976.38
2023-04-01T17:00:40.060Z,97979.27
2023-04-01T17:03:50.015Z,97983.27
2023-04-01T17:07:23.325Z,97988.71
2023-04-01T17:10:53.617Z,97985.59
2023-04-01T17:14:05.270Z,97993.93
2023-04-01T17:17:32.202Z,97996.67
2023-04-01T17:20:50.716Z,97992.89
2023-04-01T17:23:53.278Z,97995.27
2023-04-01T17:27:15.041Z,97991.24
2023-04-01T17:31:05.166Z,97991.14
2023-04-01T17:34:30.058Z,97995.80
2023-04-01T17:37:44.301Z,97997.08
2023-04-01T17:41:28.653Z,97995.46
2023-04-01T17:44:33.289Z,97999.07
2023-04-01T17:47:48.574Z,97995.25
2023-04-01T17:51:16.632Z,97996.55
2023-04-01T17:54:46.865Z,97993.58
2023-04-01T17:58:09.317Z,97992.59
2023-04-01T18:05:02.289Z,97994.48
2023-04-01T18:08:18.910Z,97995.01
2023-04-01T18:11:34.487Z,97995.30
2023-04-01T18:15:06.566Z,97998.90
2023-04-01T18:18:44.977Z,97993.60
2023-04-01T18:21:54.526Z,97997.52
2023-04-01T18:25:07.057Z,98003.71
2023-04-01T18:28:36.516Z,98002.97
2023-04-01T18:31:45.731Z,97999.05
2023-04-01T18:35:01.790Z,98001.13
2023-04-01T18:38:30.924Z,97998.69
2023-04-01T18:41:35.818Z,98001.45
2023-04-01T18:45:18.944Z,98003.17
2023-04-01T18:48:43.082Z,97998.85
2023-04-01T18:52:01.534Z,97997.70
2023-04-01T18:55:15.664Z,97996.84
2023-04-01T18:58:28.347Z,97996.20
2023-04-01T19:01:41.046Z,97994.50
2023-04-01T19:05:03.620Z,97996.00
2023-04-01T19:08:31.883Z,97993.09
2023-04-01T19:11:52.002Z,97994.98
2023-04-01T19:15:07.338Z,97996.02
2023-04-01T19:18:25.928Z,97998.38
2023-04-01T19:21:48.064Z,97997.13
2023-04-01T19:25:23.750Z,97996.17
2023-04-01T19:28:40.447Z,97999.19
2023-04-01T19:32:19.363Z,97996.77
2023-04-01T19:35:52.121Z,97996.55
2023-04-01T19:39:02.620Z,97995.63
2023-04-01T19:42:24.252Z,97996.50
2023-04-01T19:45:32.810Z,97997.50
2023-04-01T19:49:05.776Z,98001.25
2023-04-01T19:52:20.826Z,98005.46
2023-04-01T19:55:30.378Z,98004.20
2023-04-01T19:58:57.014Z,98007.98
2023-04-01T20:02:09.234Z,98011.66
2023-04-01T20:05:42.516Z,98008.45
2023-04-01T20:08:53.908Z,98010.02
2023-04-01T20:12:06.826Z,98012.77
2023-04-01T20:15:34.537Z,98011.14
2023-04-01T20:19:04.212Z,98014.42
2023-04-01T20:22:47.249Z,98017.48
2023-04-01T20:25:58.626Z,98015.72
2023-04-01T20:29:39.810Z,98015.39
2023-04-01T20:33:01.812Z,98016.12
2023-04-01T20:36:11.625Z,98018.55
2023-04-01T20:39:41.826Z,98022.09
2023-04-01T20:43:10.196Z,98020.54
2023-04-01T20:46:35.836Z,98019.31
2023-04-01T20:50:09.135Z,98019.89
2023-04-01T20:53:29.644Z,98015.83
2023-04-01T20:56:57.461Z,98014.54
2023-04-01T21:00:24.062Z,98015.91
2023-04-01T21:03:36.035Z,98015.90
2023-04-01T21:07:02.402Z,98012.80
2023-04-01T21:10:25.753Z,98013.08
2023-04-01T21:13:48.713Z,98011.66
2023-04-01T21:17:23.644Z,98012.16
2023-04-01T21:20:48.663Z,98014.48
2023-04-01T21:24:14.620Z,98013.56
2023-04-01T21:27:40.406Z,98015.21
2023-04-01T21:31:05.250Z,98013.65
2023-04-01T21:34:31.249Z,98013.05
2023-04-01T21:37:54.508Z,98007.48
2023-04-01T21:41:19.061Z,98012.23
2023-04-01T21:44:28.197Z,98015.20
2023-04-01T21:48:08.376Z,98013.58
2023-04-01T21:51:42.897Z,98013.65
2023-04-01T21:54:51.996Z,98010.77
2023-04-01T21:58:23.479Z,98013.25
2023-04-01T22:05:11.766Z,98009.92
2023-04-01T22:08:36.793Z,98013.55
2023-04-01T22:12:05.590Z,98016.10
2023-04-01T22:15:42.055Z,98020.39
2023-04-01T22:19:00.290Z,98022.41
2023-04-01T22:22:25.196Z,98022.73
2023-04-01T22:26:03.321Z,98022.10
2023-04-01T22:29:27.223Z,98024.63
2023-04-01T22:33:07.042Z,98025.59
2023-04-01T22:36:45.684Z,98026.38
2023-04-01T22:40:22.676Z,98022.13
2023-04-01T22:43:41.658Z,98020.35
2023-04-01T22:46:47.929Z,98021.14
2023-04-01T22:50:12.197Z,98020.34
2023-04-01T22:53:45.703Z,98023.62
2023-04-01T22:57:01.266Z,98022.27
2023-04-01T23:00:27.128Z,98024.02
2023-04-01T23:03:37.570Z,98023.34
2023-04-01T23:06:47.843Z,98022.40
2023-04-01T23:09:52.976Z,98021.20
2023-04-01T23:13:01.563Z,98021.98
2023-04-01T23:16:07.575Z,98021.92
2023-04-01T23:19:33.581Z,98021.84
2023-04-01T23:22:45.814Z,98019.83
2023-04-01T23:26:15.513Z,98019.17
2023-04-01T23:29:21.816Z,98016.92
2023-04-01T23:32:27.496Z,98019.04
2023-04-01T23:35:31.325Z,98017.78
2023-04-01T23:38:43.259Z,98017.21
2023-04-01T23:41:47.247Z,98019.73
2023-04-01T23:44:57.016Z,98020.16
2023-04-01T23:48:02.364Z,98018.52
2023-04-01T23:51:30.952Z,98014.36
2023-04-01T23:54:43.334Z,98016.48
2023-04-01T23:58:28.005Z,98014.36
